createdAt,value
2018-01-20T00:00:11.737Z,8.80
2018-01-20T00:01:11.729Z,8.80
2018-01-20T00:02:11.697Z,8.80
2018-01-20T00:03:11.693Z,10.10
2018-01-20T00:04:11.661Z,9.60
2018-01-20T00:05:11.640Z,7.20
2018-01-20T00:06:11.637Z,12.20
2018-01-20T00:07:11.614Z,9.60
2018-01-20T00:08:11.585Z,9.50
2018-01-20T00:09:11.566Z,8.60
2018-01-20T00:10:11.546Z,8.80
2018-01-20T00:11:11.545Z,9.70
2018-01-20T00:12:11.509Z,9.20
2018-01-20T00:13:11.492Z,10.40
2018-01-20T00:14:11.474Z,10.80
2018-01-20T00:15:11.449Z,10.20
2018-01-20T00:16:11.448Z,7.10
2018-01-20T00:17:11.416Z,7.10
2018-01-20T00:18:11.410Z,8.40
2018-01-20T00:19:11.380Z,7.80
2018-01-20T00:20:11.358Z,7.40
2018-01-20T00:21:11.342Z,9.60
2018-01-20T00:22:11.341Z,6.60
2018-01-20T00:23:11.304Z,6.70
2018-01-20T00:24:11.282Z,7.80
2018-01-20T00:25:11.282Z,8.40
2018-01-20T00:26:11.248Z,7.00
2018-01-20T00:27:11.231Z,8.10
2018-01-20T00:28:11.211Z,8.90
2018-01-20T00:29:11.208Z,6.60
2018-01-20T00:30:11.170Z,7.80
2018-01-20T00:31:11.167Z,8.00
2018-01-20T00:32:11.140Z,8.20
2018-01-20T00:33:11.137Z,8.10
2018-01-20T00:34:11.101Z,8.90
2018-01-20T00:35:11.082Z,7.90
2018-01-20T00:36:11.077Z,8.40
2018-01-20T00:37:11.049Z,9.60
2018-01-20T00:38:11.028Z,9.90
2018-01-20T00:39:11.010Z,9.00
2018-01-20T00:40:11.000Z,8.60
2018-01-20T00:41:10.972Z,7.40
2018-01-20T00:42:10.952Z,8.40
2018-01-20T00:43:10.933Z,6.10
2018-01-20T00:44:10.916Z,8.00
2018-01-20T00:45:31.984Z,7.30
2018-01-20T00:46:10.876Z,7.20
2018-01-20T00:47:10.876Z,6.90
2018-01-20T00:48:10.856Z,7.40
2018-01-20T00:49:10.828Z,8.40
2018-01-20T00:50:10.801Z,7.80
2018-01-20T00:51:10.787Z,6.20
2018-01-20T00:52:10.770Z,7.10
2018-01-20T00:53:10.783Z,9.10
2018-01-20T00:54:10.731Z,6.40
2018-01-20T00:55:10.715Z,7.40
2018-01-20T00:56:10.695Z,6.90
2018-01-20T00:57:10.677Z,5.90
2018-01-20T00:58:10.656Z,7.00
2018-01-20T00:59:10.657Z,7.80
2018-01-20T01:00:10.624Z,8.30
2018-01-20T01:01:10.619Z,6.40
2018-01-20T01:02:10.587Z,9.10
2018-01-20T01:03:10.568Z,8.00
2018-01-20T01:04:10.550Z,7.90
2018-01-20T01:05:10.546Z,7.40
2018-01-20T01:06:10.513Z,7.90
2018-01-20T01:07:10.498Z,7.80
2018-01-20T01:08:10.527Z,7.20
2018-01-20T01:09:10.459Z,8.50
2018-01-20T01:10:10.457Z,8.90
2018-01-20T01:11:10.423Z,9.30
2018-01-20T01:12:10.426Z,8.30
2018-01-20T01:13:10.390Z,8.40
2018-01-20T01:14:10.369Z,9.30
2018-01-20T01:15:10.355Z,8.10
2018-01-20T01:16:10.333Z,10.40
2018-01-20T01:17:10.315Z,9.70
2018-01-20T01:18:10.310Z,10.30
2018-01-20T01:19:10.281Z,9.00
2018-01-20T01:20:10.262Z,8.50
2018-01-20T01:21:10.243Z,10.40
2018-01-20T01:22:10.224Z,10.60
2018-01-20T01:23:10.221Z,8.70
2018-01-20T01:24:10.205Z,9.60
2018-01-20T01:25:10.172Z,10.20
2018-01-20T01:26:10.153Z,12.60
2018-01-20T01:27:10.148Z,13.80
2018-01-20T01:28:10.121Z,11.10
2018-01-20T01:29:10.100Z,10.40
2018-01-20T01:30:10.095Z,11.10
2018-01-20T01:31:10.079Z,13.20
2018-01-20T01:32:10.045Z,10.60
2018-01-20T01:33:10.030Z,11.30
2018-01-20T01:34:10.025Z,11.70
2018-01-20T01:35:10.002Z,10.30
2018-01-20T01:36:09.973Z,11.80
2018-01-20T01:37:09.972Z,12.30
2018-01-20T01:38:09.935Z,10.10
2018-01-20T01:39:09.918Z,11.30
2018-01-20T01:40:09.899Z,12.00
2018-01-20T01:41:09.884Z,12.00
2018-01-20T01:42:09.867Z,11.80
2018-01-20T01:43:09.861Z,11.10
2018-01-20T01:44:09.830Z,12.20
2018-01-20T01:45:09.810Z,10.70
2018-01-20T01:46:09.793Z,12.30
2018-01-20T01:47:09.788Z,11.10
2018-01-20T01:48:09.759Z,11.00
2018-01-20T01:49:09.754Z,11.50
2018-01-20T01:50:09.724Z,9.80
2018-01-20T01:51:09.703Z,10.00
2018-01-20T01:52:09.688Z,9.70
2018-01-20T01:53:09.671Z,9.10
2018-01-20T01:54:09.667Z,11.10
2018-01-20T01:55:09.635Z,9.30
2018-01-20T01:56:09.629Z,9.00
2018-01-20T01:57:09.597Z,8.20
2018-01-20T01:58:09.581Z,7.90
2018-01-20T01:59:09.560Z,9.20
2018-01-20T02:00:09.558Z,6.60
2018-01-20T02:01:09.528Z,6.50
2018-01-20T02:02:09.507Z,6.80
2018-01-20T02:03:09.578Z,8.50
2018-01-20T02:04:09.481Z,9.70
2018-01-20T02:05:09.470Z,7.60
2018-01-20T02:06:09.430Z,7.50
2018-01-20T02:07:09.414Z,7.70
2018-01-20T02:08:09.400Z,7.70
2018-01-20T02:09:09.382Z,9.10
2018-01-20T02:10:09.376Z,9.20
2018-01-20T02:11:09.346Z,8.40
2018-01-20T02:12:09.328Z,7.90
2018-01-20T02:13:09.308Z,6.70
2018-01-20T02:14:09.287Z,6.80
2018-01-20T02:15:09.290Z,7.50
2018-01-20T02:16:09.251Z,7.50
2018-01-20T02:17:09.236Z,7.00
2018-01-20T02:18:09.215Z,10.00
2018-01-20T02:19:09.199Z,7.20
2018-01-20T02:20:09.196Z,7.30
2018-01-20T02:21:09.162Z,7.80
2018-01-20T02:22:09.144Z,7.70
2018-01-20T02:23:09.145Z,6.50
2018-01-20T02:24:09.108Z,8.70
2018-01-20T02:25:09.091Z,7.20
2018-01-20T02:26:09.074Z,6.20
2018-01-20T02:27:09.054Z,8.20
2018-01-20T02:28:09.040Z,7.70
2018-01-20T02:29:09.033Z,7.60
2018-01-20T02:30:08.997Z,8.00
2018-01-20T02:31:08.983Z,6.90
2018-01-20T02:32:09.000Z,6.20
2018-01-20T02:33:08.948Z,6.70
2018-01-20T02:34:08.926Z,7.40
2018-01-20T02:35:08.910Z,7.10
2018-01-20T02:36:08.891Z,8.50
2018-01-20T02:37:08.869Z,9.20
2018-01-20T02:38:08.872Z,9.30
2018-01-20T02:39:08.830Z,8.70
2018-01-20T02:40:08.853Z,7.50
2018-01-20T02:41:08.803Z,7.70
2018-01-20T02:42:08.780Z,8.00
2018-01-20T02:43:08.762Z,9.20
2018-01-20T02:44:08.748Z,7.20
2018-01-20T02:45:08.729Z,9.10
2018-01-20T02:46:08.723Z,8.10
2018-01-20T02:47:08.705Z,9.50
2018-01-20T02:48:08.670Z,10.40
2018-01-20T02:49:08.654Z,8.10
2018-01-20T02:50:08.635Z,9.20
2018-01-20T02:51:08.614Z,8.30
2018-01-20T02:52:08.611Z,8.40
2018-01-20T02:53:08.580Z,9.20
2018-01-20T02:54:08.573Z,8.40
2018-01-20T02:55:08.543Z,8.30
2018-01-20T02:56:08.532Z,7.20
2018-01-20T02:57:08.534Z,10.00
2018-01-20T02:58:08.488Z,8.10
2018-01-20T02:59:08.468Z,9.30
2018-01-20T03:00:08.450Z,7.50
2018-01-20T03:01:08.433Z,8.60
2018-01-20T03:02:08.412Z,8.20
2018-01-20T03:03:08.409Z,8.40
2018-01-20T03:04:08.377Z,9.30
2018-01-20T03:05:08.357Z,9.30
2018-01-20T03:06:08.338Z,8.80
2018-01-20T03:07:08.316Z,8.60
2018-01-20T03:08:08.303Z,10.10
2018-01-20T03:09:08.296Z,9.00
2018-01-20T03:10:08.262Z,8.10
2018-01-20T03:11:08.245Z,8.10
2018-01-20T03:12:08.225Z,10.00
2018-01-20T03:13:08.207Z,10.10
2018-01-20T03:14:08.204Z,9.40
2018-01-20T03:15:08.184Z,10.00
2018-01-20T03:16:08.162Z,11.60
2018-01-20T03:17:08.132Z,11.10
2018-01-20T03:18:08.112Z,12.40
2018-01-20T03:19:08.094Z,12.10
2018-01-20T03:20:08.075Z,12.10
2018-01-20T03:21:08.075Z,11.70
2018-01-20T03:22:08.037Z,9.20
2018-01-20T03:23:08.037Z,10.40
2018-01-20T03:24:08.003Z,12.90
2018-01-20T03:25:07.982Z,10.70
2018-01-20T03:26:07.964Z,11.40
2018-01-20T03:27:07.955Z,9.80
2018-01-20T03:28:07.926Z,12.60
2018-01-20T03:29:07.905Z,10.30
2018-01-20T03:30:07.887Z,11.30
2018-01-20T03:31:07.869Z,11.00
2018-01-20T03:32:07.853Z,12.60
2018-01-20T03:33:07.848Z,11.90
2018-01-20T03:34:07.810Z,12.60
2018-01-20T03:35:07.797Z,10.90
2018-01-20T03:36:07.774Z,11.30
2018-01-20T03:37:07.757Z,11.30
2018-01-20T03:38:07.735Z,10.50
2018-01-20T03:39:07.728Z,11.90
2018-01-20T03:40:07.699Z,12.20
2018-01-20T03:41:07.693Z,14.40
2018-01-20T03:42:07.659Z,12.60
2018-01-20T03:43:07.653Z,11.10
2018-01-20T03:44:07.619Z,11.70
2018-01-20T03:45:07.605Z,12.60
2018-01-20T03:46:07.594Z,13.70
2018-01-20T03:47:07.562Z,11.20
2018-01-20T03:48:07.546Z,13.00
2018-01-20T03:49:07.527Z,11.70
2018-01-20T03:50:07.505Z,11.40
2018-01-20T03:51:07.520Z,13.90
2018-01-20T03:52:07.469Z,11.90
2018-01-20T03:53:07.453Z,11.20
2018-01-20T03:54:07.431Z,10.80
2018-01-20T03:55:07.413Z,11.40
2018-01-20T03:56:07.391Z,14.70
2018-01-20T03:57:07.409Z,14.20
2018-01-20T03:58:07.354Z,10.70
2018-01-20T03:59:07.334Z,13.00
2018-01-20T04:00:07.317Z,12.00
2018-01-20T04:01:07.297Z,14.30
2018-01-20T04:02:07.279Z,15.20
2018-01-20T04:03:07.273Z,11.10
2018-01-20T04:04:07.242Z,11.80
2018-01-20T04:05:07.235Z,13.40
2018-01-20T04:06:07.205Z,12.70
2018-01-20T04:07:07.180Z,13.20
2018-01-20T04:08:07.180Z,12.20
2018-01-20T04:09:07.146Z,13.80
2018-01-20T04:10:07.125Z,12.90
2018-01-20T04:11:07.110Z,14.80
2018-01-20T04:12:07.089Z,16.20
2018-01-20T04:13:07.084Z,14.00
2018-01-20T04:14:07.050Z,12.70
2018-01-20T04:15:07.032Z,14.20
2018-01-20T04:16:07.012Z,15.10
2018-01-20T04:17:06.993Z,17.80
2018-01-20T04:18:06.974Z,12.80
2018-01-20T04:19:06.972Z,12.50
2018-01-20T04:20:06.936Z,12.90
2018-01-20T04:21:06.917Z,13.20
2018-01-20T04:22:06.897Z,16.00
2018-01-20T04:23:06.879Z,12.40
2018-01-20T04:24:06.894Z,13.30
2018-01-20T04:25:06.840Z,13.00
2018-01-20T04:26:06.819Z,14.90
2018-01-20T04:27:06.803Z,12.80
2018-01-20T04:28:06.784Z,12.70
2018-01-20T04:29:06.764Z,13.70
2018-01-20T04:30:06.760Z,14.10
2018-01-20T04:31:06.739Z,13.70
2018-01-20T04:32:06.710Z,13.10
2018-01-20T04:33:06.687Z,13.30
2018-01-20T04:34:06.666Z,14.60
2018-01-20T04:35:06.649Z,13.10
2018-01-20T04:36:06.647Z,15.20
2018-01-20T04:37:06.611Z,15.40
2018-01-20T04:38:06.592Z,14.50
2018-01-20T04:39:06.579Z,11.90
2018-01-20T04:40:06.554Z,13.20
2018-01-20T04:41:06.535Z,12.50
2018-01-20T04:42:06.531Z,13.20
2018-01-20T04:43:06.497Z,12.20
2018-01-20T04:44:06.479Z,12.20
2018-01-20T04:45:06.458Z,13.60
2018-01-20T04:46:06.438Z,12.20
2018-01-20T04:47:06.429Z,13.10
2018-01-20T04:48:06.406Z,14.40
2018-01-20T04:49:06.383Z,9.80
2018-01-20T04:50:06.377Z,11.10
2018-01-20T04:51:06.343Z,12.10
2018-01-20T04:52:06.340Z,15.10
2018-01-20T04:53:06.314Z,11.90
2018-01-20T04:54:06.287Z,11.90
2018-01-20T04:55:06.268Z,11.70
2018-01-20T04:56:06.252Z,11.90
2018-01-20T04:57:06.232Z,12.00
2018-01-20T04:58:06.240Z,11.00
2018-01-20T04:59:06.189Z,13.60
2018-01-20T05:00:06.172Z,11.00
2018-01-20T05:01:06.157Z,12.80
2018-01-20T05:02:06.134Z,11.30
2018-01-20T05:03:06.146Z,12.70
2018-01-20T05:04:06.108Z,12.50
2018-01-20T05:05:06.074Z,10.80
2018-01-20T05:06:06.073Z,12.80
2018-01-20T05:07:06.034Z,10.90
2018-01-20T05:08:06.035Z,12.00
2018-01-20T05:09:06.001Z,12.20
2018-01-20T05:10:05.983Z,12.50
2018-01-20T05:11:05.961Z,15.40
2018-01-20T05:12:05.944Z,11.00
2018-01-20T05:13:05.955Z,13.90
2018-01-20T05:14:05.955Z,12.10
2018-01-20T05:15:05.887Z,14.10
2018-01-20T05:16:05.866Z,11.80
2018-01-20T05:17:05.850Z,14.80
2018-01-20T05:18:05.829Z,15.80
2018-01-20T05:19:05.826Z,13.30
2018-01-20T05:20:05.818Z,14.10
2018-01-20T05:21:05.774Z,11.50
2018-01-20T05:22:05.756Z,10.90
2018-01-20T05:23:05.738Z,11.60
2018-01-20T05:24:05.728Z,12.20
2018-01-20T05:25:05.696Z,11.70
2018-01-20T05:26:05.680Z,13.90
2018-01-20T05:27:05.659Z,12.10
2018-01-20T05:28:05.641Z,13.10
2018-01-20T05:29:05.633Z,15.30
2018-01-20T05:30:05.603Z,11.70
2018-01-20T05:31:05.583Z,12.80
2018-01-20T05:32:05.565Z,12.30
2018-01-20T05:33:05.595Z,12.20
2018-01-20T05:34:05.538Z,11.80
2018-01-20T05:35:05.508Z,12.60
2018-01-20T05:36:05.489Z,10.70
2018-01-20T05:37:05.484Z,13.00
2018-01-20T05:38:05.451Z,12.30
2018-01-20T05:39:05.429Z,14.70
2018-01-20T05:40:05.420Z,12.10
2018-01-20T05:41:05.392Z,10.40
2018-01-20T05:42:05.373Z,12.60
2018-01-20T05:43:05.352Z,9.90
2018-01-20T05:44:05.349Z,11.60
2018-01-20T05:45:05.315Z,10.80
2018-01-20T05:46:05.298Z,13.50
2018-01-20T05:47:05.276Z,10.40
2018-01-20T05:48:05.257Z,11.70
2018-01-20T05:49:05.256Z,11.90
2018-01-20T05:50:05.225Z,10.60
2018-01-20T05:51:05.203Z,10.30
2018-01-20T05:52:05.180Z,10.10
2018-01-20T05:53:05.166Z,11.40
2018-01-20T05:54:05.142Z,10.20
2018-01-20T05:55:05.139Z,11.40
2018-01-20T05:56:05.106Z,13.50
2018-01-20T05:57:05.085Z,10.40
2018-01-20T05:58:05.066Z,12.70
2018-01-20T05:59:05.050Z,11.60
2018-01-20T06:00:05.040Z,14.30
2018-01-20T06:01:05.010Z,10.80
2018-01-20T06:02:05.003Z,10.60
2018-01-20T06:03:04.985Z,11.30
2018-01-20T06:04:04.952Z,11.00
2018-01-20T06:05:04.934Z,12.60
2018-01-20T06:06:04.912Z,13.60
2018-01-20T06:07:04.908Z,10.00
2018-01-20T06:08:04.891Z,10.00
2018-01-20T06:09:04.871Z,11.30
2018-01-20T06:10:04.840Z,12.20
2018-01-20T06:11:04.818Z,11.80
2018-01-20T06:12:04.815Z,12.00
2018-01-20T06:13:04.782Z,12.20
2018-01-20T06:14:04.761Z,10.20
2018-01-20T06:15:04.745Z,12.30
2018-01-20T06:16:04.724Z,11.20
2018-01-20T06:17:25.717Z,10.00
2018-01-20T06:18:04.684Z,12.10
2018-01-20T06:19:04.665Z,11.90
2018-01-20T06:20:04.665Z,10.10
2018-01-20T06:21:04.630Z,12.90
2018-01-20T06:22:04.616Z,10.30
2018-01-20T06:23:04.591Z,10.40
2018-01-20T06:24:04.571Z,10.80
2018-01-20T06:25:04.567Z,10.10
2018-01-20T06:26:04.545Z,13.00
2018-01-20T06:27:04.516Z,11.10
2018-01-20T06:28:04.509Z,10.60
2018-01-20T06:29:04.477Z,12.30
2018-01-20T06:30:04.458Z,11.80
2018-01-20T06:31:04.440Z,11.60
2018-01-20T06:32:04.432Z,9.80
2018-01-20T06:33:04.400Z,10.40
2018-01-20T06:34:04.379Z,12.50
2018-01-20T06:35:04.361Z,10.40
2018-01-20T06:36:04.360Z,10.70
2018-01-20T06:37:04.320Z,11.80
2018-01-20T06:38:04.304Z,10.10
2018-01-20T06:39:04.294Z,11.10
2018-01-20T06:40:04.264Z,9.90
2018-01-20T06:41:04.248Z,9.70
2018-01-20T06:42:04.240Z,12.10
2018-01-20T06:43:04.207Z,11.20
2018-01-20T06:44:04.204Z,11.10
2018-01-20T06:45:04.166Z,12.60
2018-01-20T06:46:04.152Z,11.00
2018-01-20T06:47:04.130Z,11.80
2018-01-20T06:48:04.107Z,14.80
2018-01-20T06:49:04.091Z,12.10
2018-01-20T06:50:04.108Z,12.50
2018-01-20T06:51:04.050Z,12.40
2018-01-20T06:52:04.028Z,10.20
2018-01-20T06:53:04.017Z,11.90
2018-01-20T06:54:03.996Z,15.20
2018-01-20T06:55:03.977Z,11.30
2018-01-20T06:56:03.972Z,11.20
2018-01-20T06:57:03.935Z,11.00
2018-01-20T06:58:03.918Z,11.50
2018-01-20T06:59:06.068Z,11.90
2018-01-20T07:00:03.896Z,13.10
2018-01-20T07:01:03.874Z,14.00
2018-01-20T07:02:03.840Z,9.50
2018-01-20T07:03:03.818Z,12.80
2018-01-20T07:04:03.803Z,8.60
2018-01-20T07:05:03.784Z,10.60
2018-01-20T07:06:03.778Z,12.90
2018-01-20T07:07:03.762Z,10.00
2018-01-20T07:08:03.728Z,10.60
2018-01-20T07:09:03.707Z,11.90
2018-01-20T07:10:03.693Z,11.30
2018-01-20T07:11:03.742Z,11.60
2018-01-20T07:12:03.646Z,11.00
2018-01-20T07:13:03.630Z,11.70
2018-01-20T07:14:03.612Z,12.00
2018-01-20T07:15:03.590Z,10.40
2018-01-20T07:16:03.573Z,13.30
2018-01-20T07:17:03.571Z,14.20
2018-01-20T07:18:03.539Z,11.50
2018-01-20T07:19:03.516Z,10.40
2018-01-20T07:20:03.498Z,11.40
2018-01-20T07:21:03.476Z,10.90
2018-01-20T07:22:03.457Z,10.70
2018-01-20T07:23:03.453Z,9.90
2018-01-20T07:24:03.421Z,8.80
2018-01-20T07:25:03.407Z,9.70
2018-01-20T07:26:03.392Z,10.80
2018-01-20T07:27:03.379Z,8.80
2018-01-20T07:28:03.344Z,12.70
2018-01-20T07:29:03.320Z,10.30
2018-01-20T07:30:03.306Z,8.60
2018-01-20T07:31:03.287Z,10.20
2018-01-20T07:32:03.280Z,10.00
2018-01-20T07:33:03.247Z,10.20
2018-01-20T07:34:03.228Z,12.60
2018-01-20T07:35:03.209Z,10.80
2018-01-20T07:36:03.193Z,8.90
2018-01-20T07:37:03.188Z,12.30
2018-01-20T07:38:03.155Z,9.70
2018-01-20T07:39:03.136Z,10.00
2018-01-20T07:40:03.115Z,9.70
2018-01-20T07:41:03.095Z,9.50
2018-01-20T07:42:03.076Z,11.20
2018-01-20T07:43:03.072Z,12.70
2018-01-20T07:44:03.048Z,11.60
2018-01-20T07:45:03.019Z,12.20
2018-01-20T07:46:02.998Z,12.30
2018-01-20T07:47:02.984Z,9.50
2018-01-20T07:48:02.977Z,12.10
2018-01-20T07:49:02.945Z,11.30
2018-01-20T07:50:02.924Z,10.50
2018-01-20T07:51:02.901Z,10.60
2018-01-20T07:52:02.887Z,9.70
2018-01-20T07:53:02.894Z,9.50
2018-01-20T07:54:02.866Z,11.30
2018-01-20T07:55:02.830Z,11.00
2018-01-20T07:56:02.812Z,10.60
2018-01-20T07:57:02.793Z,12.30
2018-01-20T07:58:02.779Z,9.90
2018-01-20T07:59:02.753Z,10.60
2018-01-20T08:00:02.750Z,9.20
2018-01-20T08:01:02.717Z,10.60
2018-01-20T08:02:02.748Z,7.60
2018-01-20T08:03:02.693Z,9.00
2018-01-20T08:04:02.660Z,8.70
2018-01-20T08:05:02.654Z,10.30
2018-01-20T08:06:02.620Z,10.10
2018-01-20T08:07:02.606Z,9.80
2018-01-20T08:08:02.586Z,8.80
2018-01-20T08:09:02.565Z,9.80
2018-01-20T08:10:02.574Z,12.70
2018-01-20T08:11:02.528Z,10.20
2018-01-20T08:12:02.507Z,8.90
2018-01-20T08:13:02.491Z,9.50
2018-01-20T08:14:02.473Z,12.30
2018-01-20T08:15:02.452Z,10.00
2018-01-20T08:16:02.448Z,10.00
2018-01-20T08:17:02.415Z,10.50
2018-01-20T08:18:02.395Z,11.50
2018-01-20T08:19:02.377Z,12.40
2018-01-20T08:20:02.358Z,10.60
2018-01-20T08:21:02.355Z,8.60
2018-01-20T08:22:02.320Z,13.70
2018-01-20T08:23:02.303Z,8.70
2018-01-20T08:24:02.285Z,9.50
2018-01-20T08:25:02.264Z,11.60
2018-01-20T08:26:02.248Z,9.10
2018-01-20T08:27:02.245Z,9.70
2018-01-20T08:28:02.212Z,9.70
2018-01-20T08:29:02.188Z,12.80
2018-01-20T08:30:02.170Z,9.10
2018-01-20T08:31:02.166Z,7.90
2018-01-20T08:32:02.151Z,11.50
2018-01-20T08:33:02.114Z,9.70
2018-01-20T08:34:02.099Z,10.90
2018-01-20T08:35:02.081Z,9.60
2018-01-20T08:36:02.062Z,8.60
2018-01-20T08:37:02.057Z,10.90
2018-01-20T08:38:02.021Z,12.70
2018-01-20T08:39:02.004Z,9.20
2018-01-20T08:40:01.986Z,11.90
2018-01-20T08:41:01.967Z,9.40
2018-01-20T08:42:01.948Z,11.80
2018-01-20T08:43:01.947Z,11.00
2018-01-20T08:44:01.916Z,10.10
2018-01-20T08:45:01.895Z,10.70
2018-01-20T08:46:01.876Z,10.50
2018-01-20T08:47:01.857Z,10.50
2018-01-20T08:48:01.860Z,10.20
2018-01-20T08:49:01.823Z,10.10
2018-01-20T08:50:01.800Z,9.40
2018-01-20T08:51:01.786Z,13.50
2018-01-20T08:52:01.787Z,10.40
2018-01-20T08:53:01.753Z,11.00
2018-01-20T08:54:01.733Z,12.30
2018-01-20T08:55:01.713Z,8.70
2018-01-20T08:56:01.694Z,11.40
2018-01-20T08:57:01.676Z,10.80
2018-01-20T08:58:01.670Z,10.40
2018-01-20T08:59:01.641Z,8.60
2018-01-20T09:00:01.636Z,8.80
2018-01-20T09:01:01.606Z,9.40
2018-01-20T09:02:01.581Z,10.30
2018-01-20T09:03:01.583Z,11.60
2018-01-20T09:04:01.550Z,10.20
2018-01-20T09:05:01.532Z,9.70
2018-01-20T09:06:01.540Z,10.10
2018-01-20T09:07:01.495Z,8.90
2018-01-20T09:08:01.480Z,9.80
2018-01-20T09:09:01.460Z,9.40
2018-01-20T09:10:01.438Z,10.30
2018-01-20T09:11:01.421Z,12.00
2018-01-20T09:12:01.419Z,9.50
2018-01-20T09:13:01.398Z,14.50
2018-01-20T09:14:01.365Z,9.40
2018-01-20T09:15:01.349Z,9.90
2018-01-20T09:16:01.344Z,11.50
2018-01-20T09:17:01.327Z,11.70
2018-01-20T09:18:01.295Z,11.70
2018-01-20T09:19:01.292Z,12.10
2018-01-20T09:20:01.261Z,10.60
2018-01-20T09:21:01.257Z,9.70
2018-01-20T09:22:01.224Z,9.00
2018-01-20T09:23:01.205Z,10.00
2018-01-20T09:24:01.244Z,7.60
2018-01-20T09:25:01.187Z,10.70
2018-01-20T09:26:01.151Z,9.70
2018-01-20T09:27:01.133Z,10.80
2018-01-20T09:28:01.132Z,12.00
2018-01-20T09:29:01.101Z,10.40
2018-01-20T09:30:01.081Z,10.00
2018-01-20T09:31:01.079Z,11.80
2018-01-20T09:32:01.045Z,9.60
2018-01-20T09:33:01.029Z,8.80
2018-01-20T09:34:01.025Z,11.30
2018-01-20T09:35:00.988Z,11.10
2018-01-20T09:36:00.974Z,12.40
2018-01-20T09:37:00.956Z,6.70
2018-01-20T09:38:00.939Z,11.30
2018-01-20T09:39:00.935Z,11.50
2018-01-20T09:40:00.909Z,6.90
2018-01-20T09:41:00.886Z,10.90
2018-01-20T09:42:00.881Z,8.00
2018-01-20T09:43:00.847Z,9.60
2018-01-20T09:44:00.850Z,11.50
2018-01-20T09:45:00.816Z,10.80
2018-01-20T09:46:00.795Z,9.50
2018-01-20T09:47:00.781Z,11.30
2018-01-20T09:48:00.761Z,10.50
2018-01-20T09:49:00.765Z,9.40
2018-01-20T09:50:00.722Z,8.00
2018-01-20T09:51:00.710Z,8.80
2018-01-20T09:52:00.692Z,9.50
2018-01-20T09:53:00.672Z,11.20
2018-01-20T09:54:00.673Z,8.20
2018-01-20T09:55:00.638Z,7.70
2018-01-20T09:56:00.621Z,9.60
2018-01-20T09:57:00.603Z,9.50
2018-01-20T09:58:00.583Z,11.90
2018-01-20T09:59:00.584Z,9.70
2018-01-20T10:00:00.552Z,6.30
2018-01-20T10:01:00.534Z,7.20
2018-01-20T10:02:00.516Z,7.90
2018-01-20T10:03:00.514Z,7.00
2018-01-20T10:04:00.484Z,8.80
2018-01-20T10:05:00.461Z,8.70
2018-01-20T10:06:00.443Z,9.30
2018-01-20T10:07:00.428Z,7.20
2018-01-20T10:08:00.431Z,9.30
2018-01-20T10:09:00.391Z,7.60
2018-01-20T10:10:00.372Z,8.80
2018-01-20T10:11:00.360Z,9.40
2018-01-20T10:12:00.340Z,8.00
2018-01-20T10:13:00.321Z,8.70
2018-01-20T10:14:00.315Z,7.70
2018-01-20T10:15:02.233Z,8.30
2018-01-20T10:16:00.269Z,9.30
2018-01-20T10:17:00.252Z,6.40
2018-01-20T10:18:00.247Z,7.90
2018-01-20T10:19:00.216Z,7.90
2018-01-20T10:20:00.200Z,9.80
2018-01-20T10:21:00.199Z,8.80
2018-01-20T10:22:00.164Z,9.20
2018-01-20T10:23:00.160Z,7.00
2018-01-20T10:24:00.147Z,9.20
2018-01-20T10:25:00.111Z,11.20
2018-01-20T10:26:00.094Z,6.90
2018-01-20T10:27:00.072Z,7.40
2018-01-20T10:28:00.074Z,10.50
2018-01-20T10:29:00.043Z,7.80
2018-01-20T10:30:00.028Z,8.20
2018-01-20T10:31:00.026Z,6.90
2018-01-20T10:31:59.991Z,9.10
2018-01-20T10:32:59.976Z,9.80
2018-01-20T10:33:59.956Z,7.80
2018-01-20T10:34:59.937Z,9.40
2018-01-20T10:35:59.919Z,9.40
2018-01-20T10:36:59.916Z,9.60
2018-01-20T10:37:59.884Z,8.50
2018-01-20T10:38:59.863Z,7.80
2018-01-20T10:39:59.849Z,8.10
2018-01-20T10:40:59.833Z,8.90
2018-01-20T10:41:59.829Z,8.00
2018-01-20T10:42:59.800Z,10.30
2018-01-20T10:43:59.775Z,8.30
2018-01-20T10:44:59.762Z,7.50
2018-01-20T10:45:59.742Z,9.20
2018-01-20T10:46:59.740Z,6.60
2018-01-20T10:47:59.727Z,7.30
2018-01-20T10:48:59.692Z,8.90
2018-01-20T10:49:59.672Z,6.60
2018-01-20T10:50:59.654Z,8.30
2018-01-20T10:51:59.640Z,8.60
2018-01-20T10:52:59.638Z,7.00
2018-01-20T10:53:59.605Z,8.50
2018-01-20T10:54:59.585Z,6.80
2018-01-20T10:55:59.571Z,8.00
2018-01-20T10:56:59.551Z,8.70
2018-01-20T10:57:59.550Z,11.00
2018-01-20T10:58:59.518Z,11.00
2018-01-20T10:59:59.502Z,11.70
2018-01-20T11:00:59.494Z,8.40
2018-01-20T11:01:59.460Z,9.50
2018-01-20T11:02:59.448Z,7.80
2018-01-20T11:03:59.446Z,9.90
2018-01-20T11:04:59.416Z,11.40
2018-01-20T11:05:59.394Z,7.60
2018-01-20T11:06:59.379Z,8.30
2018-01-20T11:07:59.365Z,7.10
2018-01-20T11:08:59.360Z,10.20
2018-01-20T11:09:59.337Z,9.70
2018-01-20T11:10:59.309Z,9.60
2018-01-20T11:11:59.302Z,7.90
2018-01-20T11:12:59.277Z,7.80
2018-01-20T11:13:59.257Z,9.20
2018-01-20T11:14:59.254Z,7.80
2018-01-20T11:15:59.223Z,7.00
2018-01-20T11:16:59.206Z,6.20
2018-01-20T11:17:59.186Z,6.50
2018-01-20T11:18:59.170Z,8.90
2018-01-20T11:19:59.152Z,7.70
2018-01-20T11:20:59.155Z,8.80
2018-01-20T11:21:59.117Z,7.90
2018-01-20T11:22:59.101Z,8.20
2018-01-20T11:23:59.084Z,6.90
2018-01-20T11:24:59.065Z,8.20
2018-01-20T11:25:59.051Z,8.90
2018-01-20T11:26:59.044Z,7.50
2018-01-20T11:27:59.015Z,6.80
2018-01-20T11:28:58.997Z,7.40
2018-01-20T11:29:58.977Z,7.10
2018-01-20T11:30:58.976Z,11.00
2018-01-20T11:31:58.962Z,6.40
2018-01-20T11:32:58.927Z,9.30
2018-01-20T11:33:58.909Z,9.90
2018-01-20T11:34:58.895Z,8.00
2018-01-20T11:35:58.887Z,8.30
2018-01-20T11:36:58.873Z,9.70
2018-01-20T11:37:58.842Z,8.00
2018-01-20T11:38:58.825Z,9.30
2018-01-20T11:39:58.808Z,7.50
2018-01-20T11:40:58.792Z,7.60
2018-01-20T11:41:58.770Z,6.90
2018-01-20T11:42:58.768Z,8.50
2018-01-20T11:43:58.735Z,7.70
2018-01-20T11:44:58.722Z,8.20
2018-01-20T11:45:58.702Z,7.90
2018-01-20T11:46:58.683Z,6.90
2018-01-20T11:47:58.682Z,8.10
2018-01-20T11:48:58.652Z,6.70
2018-01-20T11:49:58.629Z,7.60
2018-01-20T11:50:58.613Z,6.50
2018-01-20T11:51:58.596Z,8.20
2018-01-20T11:52:58.590Z,7.40
2018-01-20T11:53:58.560Z,8.00
2018-01-20T11:54:58.561Z,7.30
2018-01-20T11:55:58.526Z,9.10
2018-01-20T11:56:58.513Z,8.00
2018-01-20T11:57:58.491Z,6.50
2018-01-20T11:58:58.475Z,7.20
2018-01-20T11:59:58.455Z,6.80
2018-01-20T12:00:58.455Z,7.50
2018-01-20T12:01:58.423Z,7.40
2018-01-20T12:02:58.405Z,7.80
2018-01-20T12:03:58.383Z,7.10
2018-01-20T12:04:58.386Z,7.20
2018-01-20T12:05:58.351Z,9.60
2018-01-20T12:06:58.335Z,7.10
2018-01-20T12:07:58.324Z,8.00
2018-01-20T12:08:58.300Z,12.90
2018-01-20T12:09:58.284Z,11.60
2018-01-20T12:10:58.299Z,9.40
2018-01-20T12:11:58.251Z,10.00
2018-01-20T12:12:58.229Z,11.50
2018-01-20T12:13:58.214Z,10.50
2018-01-20T12:14:58.197Z,13.40
2018-01-20T12:15:58.181Z,14.30
2018-01-20T12:16:58.175Z,14.50
2018-01-20T12:17:58.147Z,14.80
2018-01-20T12:18:58.122Z,17.30
2018-01-20T12:19:58.113Z,19.10
2018-01-20T12:20:58.093Z,17.70
2018-01-20T12:21:58.074Z,15.40
2018-01-20T12:22:58.076Z,16.20
2018-01-20T12:23:58.039Z,18.70
2018-01-20T12:24:58.022Z,18.80
2018-01-20T12:25:58.003Z,15.00
2018-01-20T12:26:58.004Z,14.90
2018-01-20T12:27:57.971Z,10.90
2018-01-20T12:28:57.951Z,14.60
2018-01-20T12:29:57.933Z,11.90
2018-01-20T12:30:57.919Z,17.10
2018-01-20T12:31:57.895Z,16.10
2018-01-20T12:32:57.894Z,13.60
2018-01-20T12:33:57.863Z,14.70
2018-01-20T12:34:57.846Z,14.40
2018-01-20T12:35:57.828Z,15.00
2018-01-20T12:36:57.839Z,14.90
2018-01-20T12:37:57.793Z,10.70
2018-01-20T12:38:57.775Z,12.10
2018-01-20T12:39:57.761Z,15.20
2018-01-20T12:40:57.740Z,14.20
2018-01-20T12:41:57.724Z,13.90
2018-01-20T12:42:57.733Z,13.00
2018-01-20T12:43:57.688Z,12.90
2018-01-20T12:44:57.673Z,11.20
2018-01-20T12:45:57.653Z,11.80
2018-01-20T12:46:57.635Z,13.40
2018-01-20T12:47:57.618Z,15.80
2018-01-20T12:48:57.618Z,12.00
2018-01-20T12:49:57.582Z,10.20
2018-01-20T12:50:57.566Z,13.70
2018-01-20T12:51:57.546Z,11.30
2018-01-20T12:52:57.529Z,10.70
2018-01-20T12:53:57.529Z,10.80
2018-01-20T12:54:57.508Z,11.50
2018-01-20T12:55:57.477Z,11.10
2018-01-20T12:56:57.461Z,11.90
2018-01-20T12:57:57.438Z,12.40
2018-01-20T12:58:57.440Z,11.00
2018-01-20T12:59:57.403Z,12.00
2018-01-20T13:00:57.390Z,16.60
2018-01-20T13:01:57.370Z,12.70
2018-01-20T13:02:57.355Z,10.50